createdAt,value
2023-04-21T00:00:10.337Z,99610.03
2023-04-21T00:05:02.295Z,99602.75
2023-04-21T00:09:54.070Z,99615.03
2023-04-21T00:14:45.717Z,99584.47
2023-04-21T00:19:37.316Z,99587.38
2023-04-21T00:24:29.030Z,99581.34
2023-04-21T00:29:20.760Z,99583.84
2023-04-21T00:34:12.465Z,99585.47
2023-04-21T00:39:04.110Z,99573.41
2023-04-21T00:44:07.281Z,99571.31
2023-04-21T00:48:59.144Z,99554.50
2023-04-21T00:53:51.654Z,99551.78
2023-04-21T00:58:45.682Z,99553.84
2023-04-21T01:03:37.603Z,99547.63
2023-04-21T01:08:29.352Z,99541.59
2023-04-21T01:13:23.835Z,99542.22
2023-04-21T01:18:17.106Z,99537.03
2023-04-21T01:23:08.691Z,99530.97
2023-04-21T01:28:00.327Z,99535.13
2023-04-21T01:32:52.247Z,99531.63
2023-04-21T01:37:43.892Z,99515.81
2023-04-21T01:42:39.435Z,99515.19
2023-04-21T01:47:31.041Z,99509.16
2023-04-21T01:52:22.698Z,99500.03
2023-04-21T01:57:14.621Z,99508.34
2023-04-21T02:02:06.797Z,99502.69
2023-04-21T02:06:58.473Z,99495.66
2023-04-21T02:11:50.200Z,99498.34
2023-04-21T02:16:41.879Z,99500.22
2023-04-21T02:21:33.742Z,99484.41
2023-04-21T02:26:25.699Z,99485.47
2023-04-21T02:31:18.937Z,99478.59
2023-04-21T02:36:10.729Z,99471.75
2023-04-21T02:41:02.337Z,99470.09
2023-04-21T02:45:53.910Z,99463.84
2023-04-21T02:50:45.496Z,99469.25
2023-04-21T02:55:37.142Z,99455.97
2023-04-21T03:00:28.734Z,99448.91
2023-04-21T03:05:21.180Z,99433.56
2023-04-21T03:10:12.834Z,99432.72
2023-04-21T03:15:04.932Z,99427.34
2023-04-21T03:19:56.562Z,99426.69
2023-04-21T03:24:48.099Z,99431.69
2023-04-21T03:29:39.725Z,99427.53
2023-04-21T03:34:31.303Z,99405.31
2023-04-21T03:39:23.114Z,99411.75
2023-04-21T03:44:15.087Z,99391.19
2023-04-21T03:49:06.721Z,99397.63
2023-04-21T03:53:59.259Z,99399.09
2023-04-21T03:58:50.867Z,99393.47
2023-04-21T04:03:42.660Z,99374.16
2023-04-21T04:08:34.447Z,99373.34
2023-04-21T04:13:26.685Z,99365.03
2023-04-21T04:18:18.269Z,99355.06
2023-04-21T04:23:09.907Z,99347.59
2023-04-21T04:28:01.491Z,99324.13
2023-04-21T04:32:53.081Z,99312.72
2023-04-21T04:37:45.599Z,99318.13
2023-04-21T04:42:37.354Z,99313.13
2023-04-21T04:47:29.670Z,99299.88
2023-04-21T04:52:21.444Z,99295.50
2023-04-21T04:57:13.188Z,99269.78
2023-04-21T05:02:04.853Z,99263.75
2023-04-21T05:06:56.536Z,99262.53
2023-04-21T05:11:48.161Z,99249.03
2023-04-21T05:16:39.992Z,99231.38
2023-04-21T05:21:31.752Z,99226.22
2023-04-21T05:26:24.325Z,99227.66
2023-04-21T05:31:15.990Z,99229.91
2023-04-21T05:36:09.437Z,99240.09
2023-04-21T05:41:00.996Z,99237.41
2023-04-21T05:45:52.934Z,99233.69
2023-04-21T05:50:44.808Z,99220.19
2023-04-21T05:55:37.351Z,99207.09
2023-04-21T06:00:28.987Z,99194.84
2023-04-21T06:05:20.811Z,99174.53
2023-04-21T06:10:14.074Z,99172.03
2023-04-21T06:15:06.382Z,99157.72
2023-04-21T06:19:58.171Z,99137.59
2023-04-21T06:24:49.844Z,99139.44
2023-04-21T06:29:42.866Z,99122.63
2023-04-21T06:34:34.590Z,99108.50
2023-04-21T06:39:26.766Z,99090.88
2023-04-21T06:44:19.228Z,99084.44
2023-04-21T06:49:11.164Z,99070.53
2023-04-21T06:54:03.116Z,99069.03
2023-04-21T06:58:55.047Z,99057.81
2023-04-21T07:03:46.917Z,99070.28
2023-04-21T07:08:39.162Z,99074.41
2023-04-21T07:13:30.738Z,99072.31
2023-04-21T07:18:22.307Z,99066.50
2023-04-21T07:23:13.986Z,99071.84
2023-04-21T07:28:05.878Z,99063.31
2023-04-21T07:32:57.707Z,99058.13
2023-04-21T07:37:49.561Z,99042.47
2023-04-21T07:42:41.335Z,99025.63
2023-04-21T07:47:33.412Z,99028.13
2023-04-21T07:52:25.045Z,98993.84
2023-04-21T07:57:16.807Z,98997.09
2023-04-21T08:02:08.683Z,98988.34
2023-04-21T08:07:00.558Z,98989.78
2023-04-21T08:11:52.279Z,98994.38
2023-04-21T08:16:44.133Z,98989.78
2023-04-21T08:21:36.488Z,98985.41
2023-04-21T08:26:30.186Z,98970.22
2023-04-21T08:31:22.017Z,98979.97
2023-04-21T08:36:26.112Z,98964.38
2023-04-21T08:41:20.787Z,98980.59
2023-04-21T08:46:12.631Z,98992.16
2023-04-21T08:51:06.810Z,98982.41
2023-04-21T08:56:09.955Z,98989.25
2023-04-21T09:01:02.747Z,98985.25
2023-04-21T09:06:05.722Z,98989.41
2023-04-21T09:10:58.767Z,98997.28
2023-04-21T09:15:54.417Z,98985.22
2023-04-21T09:20:48.086Z,98972.53
2023-04-21T09:25:41.380Z,98969.59
2023-04-21T09:30:36.364Z,98974.56
2023-04-21T09:35:29.237Z,98969.16
2023-04-21T09:40:20.937Z,98972.91
2023-04-21T09:50:12.689Z,98957.34
2023-04-21T09:55:12.025Z,98963.56
2023-04-21T10:00:13.807Z,98952.75
2023-04-21T10:05:07.287Z,98949.97
2023-04-21T10:10:01.043Z,98941.81
2023-04-21T10:14:53.721Z,98940.47
2023-04-21T10:19:51.169Z,98935.56
2023-04-21T10:24:43.326Z,98932.38
2023-04-21T10:34:30.427Z,98905.66
2023-04-21T10:39:31.418Z,98913.91
2023-04-21T10:44:23.105Z,98920.06
2023-04-21T10:49:25.652Z,98916.91
2023-04-21T10:54:17.418Z,98911.63
2023-04-21T10:59:09.123Z,98898.47
2023-04-21T11:04:01.419Z,98906.94
2023-04-21T11:08:59.568Z,98901.91
2023-04-21T11:13:53.044Z,98890.72
2023-04-21T11:18:45.312Z,98896.47
2023-04-21T11:23:41.360Z,98894.25
2023-04-21T11:28:32.928Z,98898.72
2023-04-21T11:33:24.753Z,98893.38
2023-04-21T11:38:18.687Z,98895.03
2023-04-21T11:43:10.352Z,98873.44
2023-04-21T11:48:18.022Z,98866.88
2023-04-21T11:53:09.747Z,98882.03
2023-04-21T11:58:03.469Z,98887.81
2023-04-21T12:02:57.009Z,98868.69
2023-04-21T12:07:49.057Z,98865.75
2023-04-21T12:12:42.241Z,98863.28
2023-04-21T12:17:40.355Z,98854.78
2023-04-21T12:22:31.899Z,98878.72
2023-04-21T12:27:23.572Z,98871.19
2023-04-21T12:32:15.933Z,98876.81
2023-04-21T12:37:07.860Z,98872.19
2023-04-21T12:41:59.784Z,98875.53
2023-04-21T12:46:52.340Z,98883.00
2023-04-21T12:51:44.595Z,98882.09
2023-04-21T12:56:36.632Z,98869.41
2023-04-21T13:01:28.245Z,98882.66
2023-04-21T13:06:20.139Z,98868.91
2023-04-21T13:11:11.738Z,98860.53
2023-04-21T13:16:03.658Z,98850.84
2023-04-21T13:20:55.287Z,98860.88
2023-04-21T13:25:47.270Z,98862.75
2023-04-21T13:30:38.895Z,98861.22
2023-04-21T13:35:30.641Z,98857.56
2023-04-21T13:40:22.229Z,98852.56
2023-04-21T13:45:13.915Z,98843.66
2023-04-21T13:50:06.246Z,98843.44
2023-04-21T13:54:57.791Z,98834.28
2023-04-21T13:59:50.105Z,98834.50
2023-04-21T14:04:42.221Z,98836.13
2023-04-21T14:09:34.842Z,98828.81
2023-04-21T14:14:37.876Z,98818.72
2023-04-21T14:19:32.477Z,98815.66
2023-04-21T14:24:26.920Z,98804.22
2023-04-21T14:29:18.518Z,98813.19
2023-04-21T14:34:10.052Z,98808.94
2023-04-21T14:39:01.697Z,98810.34
2023-04-21T14:43:56.221Z,98805.63
2023-04-21T14:48:47.919Z,98810.31
2023-04-21T14:53:40.744Z,98832.88
2023-04-21T14:58:32.555Z,98791.63
2023-04-21T15:03:24.298Z,98800.53
2023-04-21T15:08:18.323Z,98796.31
2023-04-21T15:13:11.661Z,98789.63
2023-04-21T15:18:03.355Z,98782.72
2023-04-21T15:22:55.050Z,98785.22
2023-04-21T15:27:46.804Z,98787.75
2023-04-21T15:32:38.545Z,98777.06
2023-04-21T15:37:30.235Z,98785.97
2023-04-21T15:42:21.881Z,98759.13
2023-04-21T15:47:15.190Z,98754.84
2023-04-21T15:52:07.188Z,98750.91
2023-04-21T15:56:58.834Z,98753.38
2023-04-21T16:01:50.503Z,98742.81
2023-04-21T16:06:42.203Z,98741.47
2023-04-21T16:11:34.505Z,98743.25
2023-04-21T16:16:26.171Z,98727.94
2023-04-21T16:21:18.010Z,98740.59
2023-04-21T16:26:09.837Z,98729.34
2023-04-21T16:31:01.595Z,98717.47
2023-04-21T16:35:54.233Z,98701.53
2023-04-21T16:40:47.153Z,98724.25
2023-04-21T16:45:38.896Z,98715.28
2023-04-21T16:50:30.873Z,98709.38
2023-04-21T16:55:22.453Z,98709.06
2023-04-21T17:00:14.772Z,98700.81
2023-04-21T17:05:06.524Z,98695.31
2023-04-21T17:09:58.368Z,98686.63
2023-04-21T17:14:50.127Z,98681.81
2023-04-21T17:19:41.713Z,98689.16
2023-04-21T17:24:44.945Z,98683.56
2023-04-21T17:29:43.891Z,98691.09
2023-04-21T17:34:35.823Z,98672.16
2023-04-21T17:39:27.676Z,98669.19
2023-04-21T17:44:19.268Z,98668.22
2023-04-21T17:49:10.936Z,98685.25
2023-04-21T17:54:03.530Z,98672.69
2023-04-21T17:58:55.194Z,98674.72
2023-04-21T18:03:47.059Z,98675.22
2023-04-21T18:08:38.811Z,98676.56
2023-04-21T18:13:30.536Z,98680.03
2023-04-21T18:18:22.094Z,98672.88
2023-04-21T18:23:13.859Z,98681.25
2023-04-21T18:28:05.537Z,98679.34
2023-04-21T18:32:57.275Z,98679.03
2023-04-21T18:37:48.911Z,98687.66
2023-04-21T18:42:41.313Z,98679.66
2023-04-21T18:47:32.908Z,98678.66
2023-04-21T18:52:24.628Z,98678.00
2023-04-21T18:57:16.257Z,98673.81
2023-04-21T19:02:12.933Z,98692.09
2023-04-21T19:07:08.333Z,98684.38
2023-04-21T19:11:59.933Z,98678.03
2023-04-21T19:16:53.011Z,98687.00
2023-04-21T19:21:44.771Z,98685.34
2023-04-21T19:26:36.416Z,98682.06
2023-04-21T19:31:28.105Z,98680.41
2023-04-21T19:36:19.796Z,98671.91
2023-04-21T19:41:11.416Z,98668.03
2023-04-21T19:46:03.085Z,98666.28
2023-04-21T19:50:54.693Z,98664.28
2023-04-21T19:55:46.833Z,98654.75
2023-04-21T20:00:38.478Z,98653.84
2023-04-21T20:05:30.093Z,98661.75
2023-04-21T20:10:22.105Z,98657.63
2023-04-21T20:15:13.788Z,98654.56
2023-04-21T20:20:06.898Z,98652.47
2023-04-21T20:24:58.491Z,98649.81
2023-04-21T20:29:50.169Z,98648.53
2023-04-21T20:34:42.214Z,98647.25
2023-04-21T20:39:33.858Z,98647.84
2023-04-21T20:44:31.370Z,98650.34
2023-04-21T20:49:23.123Z,98647.16
2023-04-21T20:54:14.728Z,98639.41
2023-04-21T20:59:06.478Z,98649.28
2023-04-21T21:04:01.209Z,98646.94
2023-04-21T21:08:53.171Z,98621.88
2023-04-21T21:13:45.509Z,98615.28
2023-04-21T21:18:37.151Z,98613.97
2023-04-21T21:23:29.036Z,98614.34
2023-04-21T21:28:20.623Z,98614.31
2023-04-21T21:33:12.279Z,98602.56
2023-04-21T21:38:04.056Z,98606.78
2023-04-21T21:42:55.635Z,98606.53
2023-04-21T21:47:47.279Z,98606.41
2023-04-21T21:52:38.921Z,98611.03
2023-04-21T21:57:30.719Z,98601.16
2023-04-21T22:02:22.439Z,98603.97
2023-04-21T22:07:14.142Z,98618.16
2023-04-21T22:12:07.048Z,98617.19
2023-04-21T22:16:59.052Z,98607.31
2023-04-21T22:21:50.652Z,98602.00
2023-04-21T22:26:44.471Z,98604.56
2023-04-21T22:31:37.198Z,98596.31
2023-04-21T22:36:28.886Z,98588.53
2023-04-21T22:41:21.190Z,98579.69
2023-04-21T22:46:12.946Z,98578.53
2023-04-21T22:51:06.338Z,98574.03
2023-04-21T22:55:57.914Z,98570.59
2023-04-21T23:00:49.758Z,98566.69
2023-04-21T23:05:41.670Z,98563.63
2023-04-21T23:10:33.672Z,98547.88
2023-04-21T23:15:26.888Z,98552.31
2023-04-21T23:20:18.632Z,98524.59
2023-04-21T23:25:10.676Z,98521.53
2023-04-21T23:30:02.764Z,98517.19
2023-04-21T23:34:54.498Z,98511.06
2023-04-21T23:39:46.068Z,98509.03
2023-04-21T23:44:37.709Z,98498.09
2023-04-21T23:49:29.421Z,98486.13
2023-04-21T23:54:21.434Z,98477.88
2023-04-21T23:59:13.128Z,98475.03
